sensor_id;sensor_type;location;lat;lon;timestamp;P1;durP1;ratioP1;P2;durP2;ratioP2
53642;SDS011;39546;45.534;12.048;2024-03-08T00:01:29;9.38;;;7.90;;
53642;SDS011;39546;45.534;12.048;2024-03-08T00:07:31;8.30;;;6.90;;
53642;SDS011;39546;45.534;12.048;2024-03-08T00:13:35;10.25;;;9.35;;
53642;SDS011;39546;45.534;12.048;2024-03-08T00:19:37;7.97;;;7.03;;
53642;SDS011;39546;45.534;12.048;2024-03-08T00:25:41;7.95;;;6.88;;
53642;SDS011;39546;45.534;12.048;2024-03-08T00:31:43;9.00;;;7.43;;
53642;SDS011;39546;45.534;12.048;2024-03-08T00:37:45;8.77;;;6.82;;
53642;SDS011;39546;45.534;12.048;2024-03-08T00:43:47;8.93;;;7.70;;
53642;SDS011;39546;45.534;12.048;2024-03-08T00:49:50;6.55;;;5.90;;
53642;SDS011;39546;45.534;12.048;2024-03-08T00:55:52;6.60;;;6.00;;
53642;SDS011;39546;45.534;12.048;2024-03-08T01:01:54;9.00;;;7.90;;
53642;SDS011;39546;45.534;12.048;2024-03-08T01:07:55;11.32;;;10.18;;
53642;SDS011;39546;45.534;12.048;2024-03-08T01:13:57;11.27;;;10.18;;
53642;SDS011;39546;45.534;12.048;2024-03-08T01:19:59;8.02;;;6.28;;
53642;SDS011;39546;45.534;12.048;2024-03-08T01:26:01;10.25;;;9.45;;
53642;SDS011;39546;45.534;12.048;2024-03-08T01:32:03;10.27;;;9.30;;
53642;SDS011;39546;45.534;12.048;2024-03-08T01:38:05;11.57;;;10.63;;
53642;SDS011;39546;45.534;12.048;2024-03-08T01:44:06;10.73;;;9.80;;
53642;SDS011;39546;45.534;12.048;2024-03-08T01:50:08;7.30;;;5.72;;
53642;SDS011;39546;45.534;12.048;2024-03-08T01:56:11;10.05;;;9.18;;
53642;SDS011;39546;45.534;12.048;2024-03-08T02:02:14;10.68;;;9.75;;
53642;SDS011;39546;45.534;12.048;2024-03-08T02:08:20;7.50;;;5.20;;
53642;SDS011;39546;45.534;12.048;2024-03-08T02:14:23;12.77;;;11.68;;
53642;SDS011;39546;45.534;12.048;2024-03-08T02:20:28;11.38;;;10.60;;
53642;SDS011;39546;45.534;12.048;2024-03-08T02:26:30;12.35;;;11.23;;
53642;SDS011;39546;45.534;12.048;2024-03-08T02:32:32;12.98;;;11.93;;
53642;SDS011;39546;45.534;12.048;2024-03-08T02:38:34;11.70;;;10.70;;
53642;SDS011;39546;45.534;12.048;2024-03-08T02:44:35;7.38;;;5.47;;
53642;SDS011;39546;45.534;12.048;2024-03-08T02:50:38;12.85;;;11.85;;
53642;SDS011;39546;45.534;12.048;2024-03-08T02:56:46;15.00;;;13.90;;
53642;SDS011;39546;45.534;12.048;2024-03-08T03:02:47;14.88;;;13.90;;
53642;SDS011;39546;45.534;12.048;2024-03-08T03:08:49;12.93;;;12.00;;
53642;SDS011;39546;45.534;12.048;2024-03-08T03:14:52;10.80;;;10.00;;
53642;SDS011;39546;45.534;12.048;2024-03-08T03:20:54;11.05;;;10.07;;
53642;SDS011;39546;45.534;12.048;2024-03-08T03:26:55;10.32;;;9.63;;
53642;SDS011;39546;45.534;12.048;2024-03-08T03:32:57;10.50;;;9.80;;
53642;SDS011;39546;45.534;12.048;2024-03-08T03:39:01;8.82;;;8.15;;
53642;SDS011;39546;45.534;12.048;2024-03-08T03:45:13;8.88;;;8.23;;
53642;SDS011;39546;45.534;12.048;2024-03-08T03:51:15;8.20;;;7.50;;
53642;SDS011;39546;45.534;12.048;2024-03-08T03:57:17;7.55;;;7.00;;
53642;SDS011;39546;45.534;12.048;2024-03-08T04:03:19;5.05;;;4.60;;
53642;SDS011;39546;45.534;12.048;2024-03-08T04:09:21;4.40;;;4.00;;
53642;SDS011;39546;45.534;12.048;2024-03-08T04:15:26;4.53;;;4.13;;
53642;SDS011;39546;45.534;12.048;2024-03-08T04:21:27;6.05;;;4.80;;
53642;SDS011;39546;45.534;12.048;2024-03-08T04:27:31;4.90;;;4.50;;
53642;SDS011;39546;45.534;12.048;2024-03-08T04:33:33;4.03;;;3.63;;
53642;SDS011;39546;45.534;12.048;2024-03-08T04:39:38;4.15;;;2.95;;
53642;SDS011;39546;45.534;12.048;2024-03-08T04:45:40;3.47;;;2.30;;
53642;SDS011;39546;45.534;12.048;2024-03-08T04:51:44;4.57;;;2.70;;
53642;SDS011;39546;45.534;12.048;2024-03-08T04:57:47;4.10;;;2.13;;
53642;SDS011;39546;45.534;12.048;2024-03-08T05:03:50;2.28;;;1.77;;
53642;SDS011;39546;45.534;12.048;2024-03-08T05:09:54;5.30;;;4.88;;
53642;SDS011;39546;45.534;12.048;2024-03-08T05:15:57;6.65;;;6.05;;
53642;SDS011;39546;45.534;12.048;2024-03-08T05:28:28;9.50;;;8.80;;
53642;SDS011;39546;45.534;12.048;2024-03-08T05:34:30;10.32;;;9.52;;
53642;SDS011;39546;45.534;12.048;2024-03-08T05:40:32;9.10;;;8.43;;
53642;SDS011;39546;45.534;12.048;2024-03-08T05:46:33;10.02;;;9.35;;
53642;SDS011;39546;45.534;12.048;2024-03-08T05:52:38;10.98;;;10.18;;
53642;SDS011;39546;45.534;12.048;2024-03-08T05:58:40;11.95;;;11.07;;
53642;SDS011;39546;45.534;12.048;2024-03-08T06:04:42;14.52;;;13.63;;
53642;SDS011;39546;45.534;12.048;2024-03-08T06:10:43;11.75;;;10.85;;
53642;SDS011;39546;45.534;12.048;2024-03-08T06:16:45;11.75;;;11.05;;
53642;SDS011;39546;45.534;12.048;2024-03-08T06:22:47;11.10;;;10.38;;
53642;SDS011;39546;45.534;12.048;2024-03-08T06:28:49;10.98;;;10.27;;
53642;SDS011;39546;45.534;12.048;2024-03-08T06:34:51;13.10;;;12.02;;
53642;SDS011;39546;45.534;12.048;2024-03-08T06:40:53;14.02;;;13.13;;
53642;SDS011;39546;45.534;12.048;2024-03-08T06:46:56;13.18;;;12.07;;
53642;SDS011;39546;45.534;12.048;2024-03-08T06:52:57;6.60;;;6.10;;
53642;SDS011;39546;45.534;12.048;2024-03-08T06:59:00;3.55;;;2.70;;
53642;SDS011;39546;45.534;12.048;2024-03-08T07:05:05;5.60;;;5.10;;
53642;SDS011;39546;45.534;12.048;2024-03-08T07:11:07;9.38;;;8.68;;
53642;SDS011;39546;45.534;12.048;2024-03-08T07:17:11;9.88;;;9.25;;
53642;SDS011;39546;45.534;12.048;2024-03-08T07:23:13;10.48;;;9.77;;
53642;SDS011;39546;45.534;12.048;2024-03-08T07:29:35;15.48;;;14.43;;
53642;SDS011;39546;45.534;12.048;2024-03-08T07:35:38;5.57;;;3.83;;
53642;SDS011;39546;45.534;12.048;2024-03-08T07:41:41;15.27;;;14.27;;
53642;SDS011;39546;45.534;12.048;2024-03-08T07:54:11;16.42;;;15.13;;
53642;SDS011;39546;45.534;12.048;2024-03-08T08:00:13;7.68;;;5.32;;
53642;SDS011;39546;45.534;12.048;2024-03-08T08:06:19;12.82;;;11.90;;
53642;SDS011;39546;45.534;12.048;2024-03-08T08:12:20;11.35;;;10.55;;
53642;SDS011;39546;45.534;12.048;2024-03-08T08:18:22;14.50;;;13.50;;
53642;SDS011;39546;45.534;12.048;2024-03-08T08:30:49;11.63;;;10.73;;
53642;SDS011;39546;45.534;12.048;2024-03-08T08:36:52;15.25;;;14.07;;
53642;SDS011;39546;45.534;12.048;2024-03-08T08:42:54;14.45;;;13.48;;
53642;SDS011;39546;45.534;12.048;2024-03-08T08:49:14;15.38;;;14.20;;
53642;SDS011;39546;45.534;12.048;2024-03-08T08:55:17;14.25;;;13.15;;
53642;SDS011;39546;45.534;12.048;2024-03-08T09:01:21;7.80;;;5.22;;
53642;SDS011;39546;45.534;12.048;2024-03-08T09:07:23;15.27;;;14.07;;
53642;SDS011;39546;45.534;12.048;2024-03-08T09:13:25;13.32;;;12.10;;
53642;SDS011;39546;45.534;12.048;2024-03-08T09:19:30;14.27;;;12.98;;
53642;SDS011;39546;45.534;12.048;2024-03-08T09:25:45;8.90;;;7.15;;
53642;SDS011;39546;45.534;12.048;2024-03-08T09:31:47;8.70;;;6.13;;
53642;SDS011;39546;45.534;12.048;2024-03-08T09:37:49;12.77;;;11.68;;
53642;SDS011;39546;45.534;12.048;2024-03-08T09:43:52;13.93;;;12.63;;
53642;SDS011;39546;45.534;12.048;2024-03-08T09:49:54;15.15;;;13.75;;
53642;SDS011;39546;45.534;12.048;2024-03-08T09:55:56;12.55;;;11.48;;
53642;SDS011;39546;45.534;12.048;2024-03-08T10:01:58;16.10;;;14.70;;
53642;SDS011;39546;45.534;12.048;2024-03-08T10:08:00;13.00;;;11.73;;
53642;SDS011;39546;45.534;12.048;2024-03-08T10:14:02;11.82;;;8.93;;
53642;SDS011;39546;45.534;12.048;2024-03-08T10:20:03;10.82;;;8.23;;
53642;SDS011;39546;45.534;12.048;2024-03-08T10:26:16;10.50;;;8.38;;
53642;SDS011;39546;45.534;12.048;2024-03-08T10:32:19;9.43;;;7.70;;
53642;SDS011;39546;45.534;12.048;2024-03-08T10:38:21;10.10;;;8.38;;
53642;SDS011;39546;45.534;12.048;2024-03-08T10:50:30;12.23;;;8.93;;
53642;SDS011;39546;45.534;12.048;2024-03-08T10:56:35;11.52;;;9.32;;
53642;SDS011;39546;45.534;12.048;2024-03-08T11:02:36;15.50;;;10.13;;
53642;SDS011;39546;45.534;12.048;2024-03-08T11:08:38;10.98;;;8.68;;
53642;SDS011;39546;45.534;12.048;2024-03-08T11:14:44;10.85;;;7.50;;
53642;SDS011;39546;45.534;12.048;2024-03-08T11:20:49;10.82;;;8.43;;
53642;SDS011;39546;45.534;12.048;2024-03-08T11:26:53;12.25;;;8.02;;
53642;SDS011;39546;45.534;12.048;2024-03-08T11:32:57;9.88;;;8.15;;
53642;SDS011;39546;45.534;12.048;2024-03-08T11:39:04;12.77;;;10.80;;
53642;SDS011;39546;45.534;12.048;2024-03-08T11:45:15;12.48;;;9.95;;
53642;SDS011;39546;45.534;12.048;2024-03-08T11:51:19;11.45;;;8.85;;
53642;SDS011;39546;45.534;12.048;2024-03-08T11:57:23;11.65;;;9.23;;
53642;SDS011;39546;45.534;12.048;2024-03-08T12:03:25;15.48;;;13.88;;
53642;SDS011;39546;45.534;12.048;2024-03-08T12:09:27;10.90;;;8.75;;
53642;SDS011;39546;45.534;12.048;2024-03-08T12:15:32;16.58;;;15.18;;
53642;SDS011;39546;45.534;12.048;2024-03-08T12:21:35;17.80;;;16.17;;
53642;SDS011;39546;45.534;12.048;2024-03-08T12:27:38;16.75;;;15.13;;
53642;SDS011;39546;45.534;12.048;2024-03-08T12:33:50;14.18;;;12.68;;
53642;SDS011;39546;45.534;12.048;2024-03-08T12:39:58;13.52;;;12.32;;
53642;SDS011;39546;45.534;12.048;2024-03-08T12:45:59;13.95;;;12.73;;
53642;SDS011;39546;45.534;12.048;2024-03-08T12:52:01;17.90;;;16.25;;
53642;SDS011;39546;45.534;12.048;2024-03-08T12:58:03;13.45;;;12.25;;
53642;SDS011;39546;45.534;12.048;2024-03-08T13:04:08;14.25;;;13.00;;
53642;SDS011;39546;45.534;12.048;2024-03-08T13:10:12;14.65;;;13.25;;
53642;SDS011;39546;45.534;12.048;2024-03-08T13:16:21;12.77;;;9.10;;
53642;SDS011;39546;45.534;12.048;2024-03-08T13:22:23;16.80;;;15.38;;
53642;SDS011;39546;45.534;12.048;2024-03-08T13:28:25;17.77;;;16.38;;
53642;SDS011;39546;45.534;12.048;2024-03-08T13:34:31;19.20;;;17.42;;
53642;SDS011;39546;45.534;12.048;2024-03-08T13:40:36;20.20;;;18.60;;
53642;SDS011;39546;45.534;12.048;2024-03-08T13:46:38;17.17;;;15.82;;
53642;SDS011;39546;45.534;12.048;2024-03-08T13:52:40;18.00;;;16.50;;
53642;SDS011;39546;45.534;12.048;2024-03-08T13:58:42;18.65;;;16.92;;
53642;SDS011;39546;45.534;12.048;2024-03-08T14:04:44;16.75;;;15.52;;
53642;SDS011;39546;45.534;12.048;2024-03-08T14:10:48;22.67;;;20.90;;
53642;SDS011;39546;45.534;12.048;2024-03-08T14:16:54;18.63;;;17.23;;
53642;SDS011;39546;45.534;12.048;2024-03-08T14:22:59;19.70;;;18.17;;
53642;SDS011;39546;45.534;12.048;2024-03-08T14:29:01;17.95;;;16.33;;
53642;SDS011;39546;45.534;12.048;2024-03-08T14:35:03;17.27;;;15.60;;
53642;SDS011;39546;45.534;12.048;2024-03-08T14:41:06;17.42;;;15.93;;
53642;SDS011;39546;45.534;12.048;2024-03-08T14:47:08;16.80;;;15.35;;
53642;SDS011;39546;45.534;12.048;2024-03-08T14:53:12;16.27;;;15.00;;
53642;SDS011;39546;45.534;12.048;2024-03-08T14:59:16;19.25;;;17.75;;
53642;SDS011;39546;45.534;12.048;2024-03-08T15:05:20;17.65;;;16.13;;
53642;SDS011;39546;45.534;12.048;2024-03-08T15:11:27;17.95;;;16.58;;
53642;SDS011;39546;45.534;12.048;2024-03-08T15:17:28;18.27;;;16.77;;
53642;SDS011;39546;45.534;12.048;2024-03-08T15:23:30;19.15;;;17.50;;
53642;SDS011;39546;45.534;12.048;2024-03-08T15:29:32;8.18;;;7.15;;
53642;SDS011;39546;45.534;12.048;2024-03-08T15:35:34;18.25;;;16.75;;
53642;SDS011;39546;45.534;12.048;2024-03-08T15:41:38;18.42;;;17.13;;
53642;SDS011;39546;45.534;12.048;2024-03-08T15:47:43;18.38;;;17.02;;
53642;SDS011;39546;45.534;12.048;2024-03-08T15:54:12;18.27;;;16.63;;
53642;SDS011;39546;45.534;12.048;2024-03-08T16:00:14;22.98;;;21.10;;
53642;SDS011;39546;45.534;12.048;2024-03-08T16:06:33;18.33;;;16.83;;
53642;SDS011;39546;45.534;12.048;2024-03-08T16:12:37;20.90;;;19.27;;
53642;SDS011;39546;45.534;12.048;2024-03-08T16:18:44;19.35;;;17.55;;
53642;SDS011;39546;45.534;12.048;2024-03-08T16:24:46;15.45;;;14.05;;
53642;SDS011;39546;45.534;12.048;2024-03-08T16:30:51;13.75;;;12.35;;
53642;SDS011;39546;45.534;12.048;2024-03-08T16:36:56;9.48;;;7.07;;
53642;SDS011;39546;45.534;12.048;2024-03-08T16:42:58;11.80;;;10.65;;
53642;SDS011;39546;45.534;12.048;2024-03-08T16:49:00;14.15;;;12.85;;
53642;SDS011;39546;45.534;12.048;2024-03-08T16:55:06;17.73;;;16.33;;
53642;SDS011;39546;45.534;12.048;2024-03-08T17:01:14;16.67;;;15.53;;
53642;SDS011;39546;45.534;12.048;2024-03-08T17:07:17;15.73;;;14.40;;
53642;SDS011;39546;45.534;12.048;2024-03-08T17:13:19;8.80;;;7.15;;
53642;SDS011;39546;45.534;12.048;2024-03-08T17:19:20;13.98;;;12.95;;
53642;SDS011;39546;45.534;12.048;2024-03-08T17:25:24;15.27;;;13.93;;
53642;SDS011;39546;45.534;12.048;2024-03-08T17:31:26;16.63;;;15.27;;
53642;SDS011;39546;45.534;12.048;2024-03-08T17:37:28;13.80;;;12.60;;
53642;SDS011;39546;45.534;12.048;2024-03-08T17:43:30;14.10;;;13.00;;
53642;SDS011;39546;45.534;12.048;2024-03-08T17:49:31;15.77;;;14.38;;
53642;SDS011;39546;45.534;12.048;2024-03-08T17:55:33;16.23;;;14.63;;
53642;SDS011;39546;45.534;12.048;2024-03-08T18:01:38;18.45;;;17.02;;
53642;SDS011;39546;45.534;12.048;2024-03-08T18:07:46;13.90;;;12.82;;
53642;SDS011;39546;45.534;12.048;2024-03-08T18:13:48;17.98;;;16.55;;
53642;SDS011;39546;45.534;12.048;2024-03-08T18:19:55;19.75;;;17.95;;
53642;SDS011;39546;45.534;12.048;2024-03-08T18:25:59;19.73;;;18.33;;
53642;SDS011;39546;45.534;12.048;2024-03-08T18:32:02;17.10;;;15.70;;
53642;SDS011;39546;45.534;12.048;2024-03-08T18:38:04;16.75;;;15.40;;
53642;SDS011;39546;45.534;12.048;2024-03-08T18:44:13;17.13;;;15.73;;
53642;SDS011;39546;45.534;12.048;2024-03-08T18:50:18;16.40;;;15.07;;
53642;SDS011;39546;45.534;12.048;2024-03-08T18:56:21;17.55;;;16.02;;
53642;SDS011;39546;45.534;12.048;2024-03-08T19:02:22;15.85;;;14.65;;
53642;SDS011;39546;45.534;12.048;2024-03-08T19:08:24;17.48;;;16.08;;
53642;SDS011;39546;45.534;12.048;2024-03-08T19:14:27;11.35;;;9.55;;
53642;SDS011;39546;45.534;12.048;2024-03-08T19:20:30;18.33;;;16.85;;
53642;SDS011;39546;45.534;12.048;2024-03-08T19:26:35;18.98;;;17.27;;
53642;SDS011;39546;45.534;12.048;2024-03-08T19:32:38;17.27;;;15.93;;
53642;SDS011;39546;45.534;12.048;2024-03-08T19:38:47;18.83;;;17.40;;
53642;SDS011;39546;45.534;12.048;2024-03-08T19:44:54;11.13;;;9.88;;
53642;SDS011;39546;45.534;12.048;2024-03-08T19:50:57;16.48;;;15.18;;
53642;SDS011;39546;45.534;12.048;2024-03-08T19:57:08;16.27;;;14.98;;
53642;SDS011;39546;45.534;12.048;2024-03-08T20:03:09;19.35;;;17.95;;
53642;SDS011;39546;45.534;12.048;2024-03-08T20:09:16;18.95;;;17.63;;
53642;SDS011;39546;45.534;12.048;2024-03-08T20:15:20;16.50;;;15.10;;
53642;SDS011;39546;45.534;12.048;2024-03-08T20:21:26;19.42;;;17.90;;
53642;SDS011;39546;45.534;12.048;2024-03-08T20:27:29;16.02;;;14.85;;
53642;SDS011;39546;45.534;12.048;2024-03-08T20:33:33;19.02;;;17.45;;
53642;SDS011;39546;45.534;12.048;2024-03-08T20:39:37;20.27;;;18.75;;
53642;SDS011;39546;45.534;12.048;2024-03-08T20:45:39;17.85;;;16.48;;
53642;SDS011;39546;45.534;12.048;2024-03-08T20:51:55;14.07;;;12.88;;
53642;SDS011;39546;45.534;12.048;2024-03-08T20:57:57;17.73;;;16.38;;
53642;SDS011;39546;45.534;12.048;2024-03-08T21:04:02;19.92;;;18.45;;
53642;SDS011;39546;45.534;12.048;2024-03-08T21:10:07;14.55;;;13.43;;
53642;SDS011;39546;45.534;12.048;2024-03-08T21:16:11;16.73;;;15.43;;
53642;SDS011;39546;45.534;12.048;2024-03-08T21:22:12;16.65;;;15.43;;
53642;SDS011;39546;45.534;12.048;2024-03-08T21:28:14;18.42;;;16.90;;
53642;SDS011;39546;45.534;12.048;2024-03-08T21:34:18;15.32;;;14.13;;
53642;SDS011;39546;45.534;12.048;2024-03-08T21:40:21;15.75;;;14.32;;
53642;SDS011;39546;45.534;12.048;2024-03-08T21:46:27;37.33;;;35.25;;
53642;SDS011;39546;45.534;12.048;2024-03-08T21:52:30;13.18;;;11.88;;
53642;SDS011;39546;45.534;12.048;2024-03-08T21:58:32;17.50;;;15.77;;
53642;SDS011;39546;45.534;12.048;2024-03-08T22:04:35;14.20;;;13.00;;
53642;SDS011;39546;45.534;12.048;2024-03-08T22:10:37;14.23;;;12.75;;
53642;SDS011;39546;45.534;12.048;2024-03-08T22:16:39;17.38;;;15.95;;
53642;SDS011;39546;45.534;12.048;2024-03-08T22:22:42;13.43;;;12.18;;
53642;SDS011;39546;45.534;12.048;2024-03-08T22:28:45;15.88;;;14.77;;
53642;SDS011;39546;45.534;12.048;2024-03-08T22:34:52;15.77;;;14.43;;
53642;SDS011;39546;45.534;12.048;2024-03-08T22:41:22;13.65;;;12.45;;
53642;SDS011;39546;45.534;12.048;2024-03-08T22:47:26;17.05;;;15.73;;
53642;SDS011;39546;45.534;12.048;2024-03-08T22:53:27;16.40;;;15.23;;
53642;SDS011;39546;45.534;12.048;2024-03-08T22:59:30;17.55;;;15.80;;
53642;SDS011;39546;45.534;12.048;2024-03-08T23:05:38;15.85;;;14.60;;
53642;SDS011;39546;45.534;12.048;2024-03-08T23:11:44;15.43;;;14.27;;
53642;SDS011;39546;45.534;12.048;2024-03-08T23:17:47;16.70;;;15.32;;
53642;SDS011;39546;45.534;12.048;2024-03-08T23:23:53;15.63;;;14.50;;
53642;SDS011;39546;45.534;12.048;2024-03-08T23:29:54;19.65;;;18.15;;
53642;SDS011;39546;45.534;12.048;2024-03-08T23:43:21;13.05;;;12.00;;
53642;SDS011;39546;45.534;12.048;2024-03-08T23:49:22;13.77;;;12.63;;
53642;SDS011;39546;45.534;12.048;2024-03-08T23:55:25;12.82;;;10.85;;
